Time;durP1;ratioP1;P1;durP2;ratioP2;P2;SDS_P1;SDS_P2;PMS_P1;PMS_P2;Temp;Humidity;BMP_temperature;BMP_pressure;BME280_temperature;BME280_humidity;BME280_pressure;Samples;Min_cycle;Max_cycle;Signal;HPM_P1;HPM_P2
2022/08/04 00:00:53;;;;;;;;;;;;;;;22.56;50.24;96346.72;5034032;28;19953;-71
2022/08/04 00:03:22;;;;;;;;;;;;;;;22.53;50.48;96348.06;5037969;28;19953;-71
2022/08/04 00:05:58;;;;;;;;;;;;;;;22.49;50.56;96345.22;5037498;28;19967;-71
2022/08/04 00:08:27;;;;;;;;;;;;;;;22.46;50.92;96342.34;5033308;28;19968;-71
2022/08/04 00:10:53;;;;;;;;;;;;;;;22.43;50.82;96342.94;5035504;28;19969;-71
2022/08/04 00:13:27;;;;;;;;;;;;;;;22.39;51.10;96345.41;5033223;28;19965;-71
2022/08/04 00:15:56;;;;;;;;;;;;;;;22.37;51.25;96349.47;5031446;28;19955;-72
2022/08/04 00:18:26;;;;;;;;;;;;;;;22.34;51.77;96344.72;5040736;28;19969;-72
2022/08/04 00:20:55;;;;;;;;;;;;;;;22.28;51.83;96339.47;5045630;28;19956;-72
2022/08/04 00:23:21;;;;;;;;;;;;;;;22.26;51.43;96340.84;5050795;28;20338;-71
2022/08/04 00:25:47;;;;;;;;;;;;;;;22.23;51.73;96341.44;5050351;28;19956;-71
2022/08/04 00:28:14;;;;;;;;;;;;;;;22.20;51.84;96339.34;5035355;28;19977;-72
2022/08/04 00:30:41;;;;;;;;;;;;;;;22.17;51.88;96342.59;5039299;28;20059;-72
2022/08/04 00:33:07;;;;;;;;;;;;;;;22.13;51.78;96338.91;5048260;28;19962;-72
2022/08/04 00:35:34;;;;;;;;;;;;;;;22.10;52.15;96338.41;5038040;28;19985;-73
2022/08/04 00:38:00;;;;;;;;;;;;;;;22.08;52.08;96342.47;5041278;28;19972;-72
2022/08/04 00:40:46;;;;;;;;;;;;;;;22.02;52.02;96339.09;5049139;28;19964;-72
2022/08/04 00:43:22;;;;;;;;;;;;;;;22.00;51.80;96338.59;5037485;28;20324;-72
2022/08/04 00:46:06;;;;;;;;;;;;;;;21.99;51.99;96337.03;5047006;28;20425;-72
2022/08/04 00:48:32;;;;;;;;;;;;;;;21.98;52.02;96335.41;5052948;28;19957;-72
2022/08/04 00:51:13;;;;;;;;;;;;;;;21.96;52.37;96345.59;5041003;28;19964;-72
2022/08/04 00:53:48;;;;;;;;;;;;;;;21.92;52.46;96339.25;5035625;28;19965;-72
2022/08/04 00:56:14;;;;;;;;;;;;;;;21.89;52.54;96346.00;5028283;28;19956;-73
2022/08/04 00:59:15;;;;;;;;;;;;;;;21.88;52.64;96338.25;5038911;28;20027;-72
2022/08/04 01:01:47;;;;;;;;;;;;;;;21.83;53.25;96344.47;5024079;28;19963;-72
2022/08/04 01:04:23;;;;;;;;;;;;;;;21.80;53.25;96338.97;5037324;28;19953;-73
2022/08/04 01:06:52;;;;;;;;;;;;;;;21.76;52.89;96340.63;5027401;28;19963;-72
2022/08/04 01:09:21;;;;;;;;;;;;;;;21.73;53.25;96339.31;5042066;28;19967;-72
2022/08/04 01:11:53;;;;;;;;;;;;;;;21.68;53.56;96337.53;5044786;28;20345;-73
2022/08/04 01:14:37;;;;;;;;;;;;;;;21.65;53.21;96329.34;5037368;28;19957;-72
2022/08/04 01:17:19;;;;;;;;;;;;;;;21.62;53.86;96338.69;5045775;28;19956;-72
2022/08/04 01:20:07;;;;;;;;;;;;;;;21.57;53.80;96332.66;5047233;28;19953;-72
2022/08/04 01:22:33;;;;;;;;;;;;;;;21.53;54.03;96339.66;5046348;28;19964;-72
2022/08/04 01:25:08;;;;;;;;;;;;;;;21.47;54.29;96341.59;5045381;28;19954;-72
2022/08/04 01:27:37;;;;;;;;;;;;;;;21.42;54.56;96333.69;5048191;28;19963;-72
2022/08/04 01:30:03;;;;;;;;;;;;;;;21.37;54.55;96333.72;5042059;28;19960;-72
2022/08/04 01:32:36;;;;;;;;;;;;;;;21.34;54.52;96332.44;5048672;28;19965;-72
2022/08/04 01:35:02;;;;;;;;;;;;;;;21.31;54.78;96340.22;5045869;28;19964;-72
2022/08/04 01:37:36;;;;;;;;;;;;;;;21.27;54.77;96334.66;5056302;28;19953;-73
2022/08/04 01:40:04;;;;;;;;;;;;;;;21.23;55.06;96333.63;5043481;28;19962;-72
2022/08/04 01:42:32;;;;;;;;;;;;;;;21.18;54.99;96334.50;5049743;28;19961;-72
2022/08/04 01:45:03;;;;;;;;;;;;;;;21.14;55.36;96335.38;5045896;28;19954;-72
2022/08/04 01:47:29;;;;;;;;;;;;;;;21.10;55.45;96332.50;5054405;28;20352;-72
2022/08/04 01:50:00;;;;;;;;;;;;;;;21.06;55.60;96332.28;5043976;28;19951;-72
2022/08/04 01:52:27;;;;;;;;;;;;;;;21.02;55.84;96338.47;5049414;28;19951;-72
2022/08/04 01:54:54;;;;;;;;;;;;;;;20.99;55.92;96325.72;5039280;28;19956;-72
2022/08/04 01:57:22;;;;;;;;;;;;;;;20.97;55.82;96330.53;5049037;28;19965;-72
2022/08/04 01:59:49;;;;;;;;;;;;;;;20.92;55.84;96328.75;5044729;28;19963;-72
2022/08/04 02:02:15;;;;;;;;;;;;;;;20.90;56.28;96330.13;5040303;28;19963;-72
2022/08/04 02:04:41;;;;;;;;;;;;;;;20.86;56.34;96328.00;5046306;28;19969;-72
2022/08/04 02:07:10;;;;;;;;;;;;;;;20.81;56.45;96332.59;5051858;28;20339;-71
2022/08/04 02:09:42;;;;;;;;;;;;;;;20.79;56.77;96332.91;5046467;28;19953;-71
2022/08/04 02:12:20;;;;;;;;;;;;;;;20.77;56.77;96328.97;5046982;28;19972;-72
2022/08/04 02:14:51;;;;;;;;;;;;;;;20.74;56.45;96330.28;5045500;28;19951;-71
2022/08/04 02:17:30;;;;;;;;;;;;;;;20.70;56.54;96326.63;5046896;28;19955;-71
2022/08/04 02:20:05;;;;;;;;;;;;;;;20.67;56.78;96322.66;5051056;28;20328;-70
2022/08/04 02:22:32;;;;;;;;;;;;;;;20.63;56.86;96320.84;5026410;28;20333;-71
2022/08/04 02:25:09;;;;;;;;;;;;;;;20.61;57.25;96320.34;5040034;28;19961;-72
2022/08/04 02:27:54;;;;;;;;;;;;;;;20.59;57.06;96319.84;5030567;28;19974;-71
2022/08/04 02:30:21;;;;;;;;;;;;;;;20.55;57.39;96318.78;5031381;28;19975;-71
2022/08/04 02:32:48;;;;;;;;;;;;;;;20.53;57.62;96326.25;5052891;28;19967;-71
2022/08/04 02:35:19;;;;;;;;;;;;;;;20.49;57.51;96320.72;5043289;28;20335;-71
2022/08/04 02:37:54;;;;;;;;;;;;;;;20.46;58.43;96318.63;5047400;28;19960;-70
2022/08/04 02:40:21;;;;;;;;;;;;;;;20.44;58.09;96310.13;5040584;28;19954;-71
2022/08/04 02:42:47;;;;;;;;;;;;;;;20.42;58.31;96310.41;5047021;28;19951;-71
2022/08/04 02:45:13;;;;;;;;;;;;;;;20.40;58.73;96314.44;5043147;28;19964;-73
2022/08/04 02:47:40;;;;;;;;;;;;;;;20.38;58.55;96311.25;5048066;28;19957;-71
2022/08/04 02:50:07;;;;;;;;;;;;;;;20.36;58.63;96310.75;5048662;28;19959;-71
2022/08/04 02:52:34;;;;;;;;;;;;;;;20.34;58.53;96307.56;5054326;28;19957;-71
2022/08/04 02:55:00;;;;;;;;;;;;;;;20.35;58.67;96314.47;5043545;28;19960;-71
2022/08/04 02:57:28;;;;;;;;;;;;;;;20.33;58.42;96304.13;5049510;28;19961;-71
2022/08/04 03:00:10;;;;;;;;;;;;;;;20.32;58.45;96307.06;5043467;28;19957;-72
2022/08/04 03:02:42;;;;;;;;;;;;;;;20.30;58.68;96302.00;5043288;28;19955;-71
2022/08/04 03:05:29;;;;;;;;;;;;;;;20.26;58.96;96308.97;5052766;28;19964;-71
2022/08/04 03:08:03;;;;;;;;;;;;;;;20.22;59.29;96307.94;5053264;28;19967;-71
2022/08/04 03:10:49;;;;;;;;;;;;;;;20.17;59.37;96303.47;5046031;28;19971;-71
2022/08/04 03:13:14;;;;;;;;;;;;;;;20.14;59.33;96298.75;5040660;28;20161;-71
2022/08/04 03:15:52;;;;;;;;;;;;;;;20.14;59.31;96305.91;5039818;28;19956;-71
2022/08/04 03:18:18;;;;;;;;;;;;;;;20.13;59.10;96309.66;5033865;28;20006;-71
2022/08/04 03:21:03;;;;;;;;;;;;;;;20.10;60.06;96310.25;5040763;28;20409;-71
2022/08/04 03:23:29;;;;;;;;;;;;;;;20.06;59.76;96310.78;5040842;28;19956;-71
2022/08/04 03:26:13;;;;;;;;;;;;;;;20.04;60.10;96304.16;5037140;28;19974;-71
2022/08/04 03:28:59;;;;;;;;;;;;;;;20.00;59.29;96309.25;5058367;28;19979;-71
2022/08/04 03:31:37;;;;;;;;;;;;;;;19.98;59.70;96311.41;5052529;28;20445;-71
2022/08/04 03:34:21;;;;;;;;;;;;;;;19.97;59.68;96315.16;5039234;28;19966;-71
2022/08/04 03:37:07;;;;;;;;;;;;;;;19.93;60.47;96319.44;5040915;28;20414;-71
2022/08/04 03:39:39;;;;;;;;;;;;;;;19.91;60.15;96316.28;5039786;28;19958;-71
2022/08/04 03:42:44;;;;;;;;;;;;;;;19.90;60.11;96317.31;5039347;28;19961;-71
2022/08/04 03:45:10;;;;;;;;;;;;;;;19.88;60.61;96316.81;5005971;28;20356;-71
2022/08/04 03:47:41;;;;;;;;;;;;;;;19.83;60.93;96325.63;5013440;28;20008;-71
2022/08/04 03:50:26;;;;;;;;;;;;;;;19.81;60.49;96317.16;5032864;28;19969;-71
2022/08/04 03:53:09;;;;;;;;;;;;;;;19.78;60.71;96315.06;5041981;28;19959;-71
2022/08/04 03:55:45;;;;;;;;;;;;;;;19.76;61.00;96316.38;5041859;28;19966;-71
2022/08/04 03:58:20;;;;;;;;;;;;;;;19.73;60.89;96315.09;5035288;28;20688;-71
2022/08/04 04:01:06;;;;;;;;;;;;;;;19.70;61.03;96310.34;5047120;28;19963;-71
2022/08/04 04:03:50;;;;;;;;;;;;;;;19.69;60.96;96314.03;5016318;28;20301;-71
2022/08/04 04:06:16;;;;;;;;;;;;;;;19.67;61.14;96316.16;5046116;28;19955;-71
2022/08/04 04:08:51;;;;;;;;;;;;;;;19.67;60.94;96310.84;5041017;28;20026;-71
2022/08/04 04:11:17;;;;;;;;;;;;;;;19.67;60.65;96305.53;5051015;28;19970;-71
2022/08/04 04:13:50;;;;;;;;;;;;;;;19.65;60.80;96316.47;5051735;28;20007;-71
2022/08/04 04:16:22;;;;;;;;;;;;;;;19.64;61.59;96317.53;5043896;28;19950;-70
2022/08/04 04:19:11;;;;;;;;;;;;;;;19.62;61.41;96313.56;5043122;28;19957;-71
2022/08/04 04:21:55;;;;;;;;;;;;;;;19.58;61.53;96318.63;5039882;28;19960;-71
2022/08/04 04:24:21;;;;;;;;;;;;;;;19.58;61.35;96312.53;5045858;28;20325;-71
2022/08/04 04:26:50;;;;;;;;;;;;;;;19.58;61.43;96321.31;5037101;28;19996;-71
2022/08/04 04:29:25;;;;;;;;;;;;;;;19.59;61.28;96311.44;5043947;28;19975;-71
2022/08/04 04:32:10;;;;;;;;;;;;;;;19.60;61.73;96321.81;5043298;28;19979;-72
2022/08/04 04:34:51;;;;;;;;;;;;;;;19.62;62.01;96325.00;5043540;28;19978;-71
2022/08/04 04:37:36;;;;;;;;;;;;;;;19.63;62.15;96323.94;5038174;28;19956;-71
2022/08/04 04:40:12;;;;;;;;;;;;;;;19.67;62.99;96332.94;5032092;28;19966;-71
2022/08/04 04:42:41;;;;;;;;;;;;;;;19.77;63.29;96326.75;5039478;28;19959;-71
2022/08/04 04:45:19;;;;;;;;;;;;;;;19.87;63.24;96326.66;5047598;28;19960;-71
2022/08/04 04:47:45;;;;;;;;;;;;;;;20.00;62.39;96324.44;5047229;28;19986;-71
2022/08/04 04:50:17;;;;;;;;;;;;;;;20.11;62.13;96322.47;5039682;28;20432;-71
2022/08/04 04:52:52;;;;;;;;;;;;;;;20.22;61.96;96324.75;5040510;28;20453;-71
2022/08/04 04:55:20;;;;;;;;;;;;;;;20.38;61.54;96322.69;5042187;28;19958;-71
2022/08/04 04:57:49;;;;;;;;;;;;;;;20.55;61.21;96318.78;5047485;28;19961;-71
2022/08/04 05:00:16;;;;;;;;;;;;;;;20.72;60.85;96316.47;5043711;28;19965;-71
2022/08/04 05:02:48;;;;;;;;;;;;;;;20.93;60.23;96313.53;5039370;28;20352;-72
2022/08/04 05:05:14;;;;;;;;;;;;;;;21.14;60.08;96320.16;5036399;28;19960;-71
2022/08/04 05:07:57;;;;;;;;;;;;;;;21.36;59.67;96308.94;5033843;28;19956;-73
2022/08/04 05:10:41;;;;;;;;;;;;;;;21.60;58.14;96297.38;5040023;28;21262;-70
2022/08/04 05:13:16;;;;;;;;;;;;;;;21.75;57.12;96290.97;5043107;28;19957;-71
2022/08/04 05:15:45;;;;;;;;;;;;;;;21.90;57.23;96288.03;5049862;28;19979;-71
2022/08/04 05:18:13;;;;;;;;;;;;;;;22.07;57.20;96288.28;5043152;28;19952;-71
2022/08/04 05:20:45;;;;;;;;;;;;;;;22.28;56.50;96287.94;5047283;28;19954;-71
2022/08/04 05:23:40;;;;;;;;;;;;;;;22.48;55.80;96278.72;5043004;28;19960;-71
2022/08/04 05:26:11;;;;;;;;;;;;;;;22.66;55.22;96277.78;5021683;28;20421;-71
2022/08/04 05:28:40;;;;;;;;;;;;;;;22.81;54.48;96275.91;5037714;28;19991;-71
2022/08/04 05:31:14;;;;;;;;;;;;;;;22.88;54.31;96279.72;5047827;28;19976;-71
2022/08/04 05:33:43;;;;;;;;;;;;;;;23.09;54.46;96281.97;5038262;28;19956;-71
2022/08/04 05:36:13;;;;;;;;;;;;;;;23.37;54.22;96280.00;5044533;28;19970;-71
2022/08/04 05:38:41;;;;;;;;;;;;;;;23.68;53.29;96285.38;5045860;28;19954;-71
2022/08/04 05:41:07;;;;;;;;;;;;;;;23.83;51.94;96254.81;5046381;28;19956;-71
2022/08/04 05:43:35;;;;;;;;;;;;;;;24.01;51.94;96261.00;5038286;28;19961;-74
2022/08/04 05:46:01;;;;;;;;;;;;;;;24.10;50.89;96261.03;5037015;28;20365;-71
2022/08/04 05:48:28;;;;;;;;;;;;;;;24.13;50.55;96256.94;5040033;28;19959;-71
2022/08/04 05:50:55;;;;;;;;;;;;;;;24.07;50.64;96261.69;5044528;28;19951;-71
2022/08/04 05:53:21;;;;;;;;;;;;;;;24.08;50.90;96271.28;5047260;28;20418;-74
2022/08/04 05:55:47;;;;;;;;;;;;;;;24.27;50.77;96271.84;5042285;28;19960;-70
2022/08/04 05:58:15;;;;;;;;;;;;;;;24.41;50.22;96262.88;5035322;28;20047;-71
2022/08/04 06:00:41;;;;;;;;;;;;;;;24.54;50.42;96271.94;5043240;28;19983;-71
2022/08/04 06:03:09;;;;;;;;;;;;;;;24.67;50.10;96258.41;5054000;28;19959;-71
2022/08/04 06:05:35;;;;;;;;;;;;;;;25.02;49.07;96254.97;5044394;28;19967;-71
2022/08/04 06:08:02;;;;;;;;;;;;;;;25.28;48.51;96249.59;5050795;28;19962;-71
2022/08/04 06:10:31;;;;;;;;;;;;;;;25.40;47.78;96257.00;5053670;28;19971;-71
2022/08/04 06:13:06;;;;;;;;;;;;;;;25.69;47.98;96267.84;5041789;28;19981;-71
2022/08/04 06:15:36;;;;;;;;;;;;;;;26.05;47.63;96269.34;5043065;28;19956;-71
2022/08/04 06:18:04;;;;;;;;;;;;;;;26.27;46.53;96264.81;5044544;28;19969;-71
2022/08/04 06:20:32;;;;;;;;;;;;;;;26.51;46.61;96256.16;5049412;28;19950;-71
2022/08/04 06:23:03;;;;;;;;;;;;;;;26.53;44.37;96262.78;5042985;28;21548;-71
2022/08/04 06:25:31;;;;;;;;;;;;;;;26.59;44.80;96265.34;5051139;28;19961;-71
2022/08/04 06:27:58;;;;;;;;;;;;;;;26.69;45.05;96264.94;5047019;28;19974;-71
2022/08/04 06:30:29;;;;;;;;;;;;;;;26.90;46.00;96271.16;5043997;28;19968;-72
2022/08/04 06:32:56;;;;;;;;;;;;;;;27.11;44.29;96268.44;5053880;28;19968;-71
2022/08/04 06:35:24;;;;;;;;;;;;;;;27.12;44.06;96271.94;5040955;28;19964;-71
2022/08/04 06:37:52;;;;;;;;;;;;;;;27.24;44.53;96282.78;5044065;28;19975;-72
2022/08/04 06:40:19;;;;;;;;;;;;;;;27.21;44.27;96272.63;5043249;28;20442;-71
2022/08/04 06:42:46;;;;;;;;;;;;;;;27.13;44.04;96282.38;5044514;28;19959;-71
2022/08/04 06:45:13;;;;;;;;;;;;;;;27.12;43.46;96278.09;5033202;28;19972;-71
2022/08/04 06:47:40;;;;;;;;;;;;;;;27.14;44.63;96283.94;5036916;28;19955;-72
2022/08/04 06:50:07;;;;;;;;;;;;;;;27.17;43.67;96281.69;5033538;28;19955;-71
2022/08/04 06:52:34;;;;;;;;;;;;;;;27.13;43.70;96281.56;5035184;28;19980;-72
2022/08/04 06:55:00;;;;;;;;;;;;;;;27.17;44.10;96289.78;5037909;28;19961;-72
2022/08/04 06:57:26;;;;;;;;;;;;;;;27.24;43.98;96288.16;5049373;28;19966;-71
2022/08/04 06:59:54;;;;;;;;;;;;;;;27.31;44.00;96293.81;5043914;28;19963;-71
2022/08/04 07:02:22;;;;;;;;;;;;;;;27.36;43.59;96284.72;5043043;28;19971;-71
2022/08/04 07:04:48;;;;;;;;;;;;;;;27.42;44.18;96296.09;5044271;28;19976;-71
2022/08/04 07:07:15;;;;;;;;;;;;;;;27.45;42.78;96285.44;5046870;28;19958;-71
2022/08/04 07:09:41;;;;;;;;;;;;;;;27.32;43.05;96292.69;5044887;28;20336;-71
2022/08/04 07:12:08;;;;;;;;;;;;;;;27.32;44.12;96300.00;5044599;28;20465;-71
2022/08/04 07:14:35;;;;;;;;;;;;;;;27.40;44.15;96298.31;5041661;28;19967;-71
2022/08/04 07:17:04;;;;;;;;;;;;;;;27.60;41.89;96284.03;5045565;28;19959;-71
2022/08/04 07:19:31;;;;;;;;;;;;;;;27.70;41.92;96283.63;5045742;28;20462;-71
2022/08/04 07:22:01;;;;;;;;;;;;;;;27.83;43.18;96289.84;5045172;28;20339;-71
2022/08/04 07:24:30;;;;;;;;;;;;;;;28.01;41.39;96271.56;5047522;28;20326;-71
2022/08/04 07:26:57;;;;;;;;;;;;;;;28.13;42.04;96276.97;5061015;28;19970;-71
2022/08/04 07:29:23;;;;;;;;;;;;;;;28.30;41.59;96275.19;5040694;28;19997;-71
2022/08/04 07:31:50;;;;;;;;;;;;;;;28.48;41.89;96271.16;5047565;28;19989;-71
2022/08/04 07:34:17;;;;;;;;;;;;;;;28.49;40.04;96261.94;5045716;28;20304;-71
2022/08/04 07:36:42;;;;;;;;;;;;;;;28.33;40.88;96286.09;5047143;28;19963;-71
2022/08/04 07:39:08;;;;;;;;;;;;;;;28.23;41.55;96283.84;5039675;28;19960;-71
2022/08/04 07:41:35;;;;;;;;;;;;;;;28.24;41.55;96280.03;5044757;28;19957;-71
2022/08/04 07:44:01;;;;;;;;;;;;;;;28.30;40.36;96269.81;5049230;28;19956;-71
2022/08/04 07:46:28;;;;;;;;;;;;;;;28.28;41.52;96278.22;5041927;28;19958;-71
2022/08/04 07:48:54;;;;;;;;;;;;;;;28.41;41.31;96279.03;5042047;28;20443;-71
2022/08/04 07:51:21;;;;;;;;;;;;;;;28.57;41.87;96278.38;5047709;28;20001;-71
2022/08/04 07:53:47;;;;;;;;;;;;;;;28.81;41.72;96280.25;5047714;28;19983;-71
2022/08/04 07:56:15;;;;;;;;;;;;;;;28.99;40.51;96270.75;5041363;28;19963;-71
2022/08/04 07:58:41;;;;;;;;;;;;;;;29.07;39.89;96266.38;5044075;28;19965;-71
2022/08/04 08:01:08;;;;;;;;;;;;;;;29.12;38.45;96255.34;5047635;28;19969;-71
2022/08/04 08:03:35;;;;;;;;;;;;;;;29.17;39.38;96263.22;5048823;28;19972;-71
2022/08/04 08:06:01;;;;;;;;;;;;;;;29.25;39.90;96269.59;5043812;28;19988;-76
2022/08/04 08:08:26;;;;;;;;;;;;;;;29.28;38.54;96260.81;5044149;28;20493;-71
2022/08/04 08:10:52;;;;;;;;;;;;;;;29.41;40.06;96262.31;5044771;28;20316;-71
2022/08/04 08:13:18;;;;;;;;;;;;;;;29.54;38.13;96250.31;5038629;28;20022;-71
2022/08/04 08:15:45;;;;;;;;;;;;;;;29.68;40.00;96258.03;5048260;28;20047;-71
2022/08/04 08:18:11;;;;;;;;;;;;;;;29.89;37.80;96251.63;5047310;28;19960;-71
2022/08/04 08:20:37;;;;;;;;;;;;;;;30.02;37.57;96247.69;5041435;28;19969;-71
2022/08/04 08:23:04;;;;;;;;;;;;;;;30.06;37.47;96253.97;5052628;28;20417;-71
2022/08/04 08:25:31;;;;;;;;;;;;;;;30.14;38.14;96252.25;5044471;28;19964;-71
2022/08/04 08:27:57;;;;;;;;;;;;;;;30.16;37.00;96252.69;5048837;28;20329;-71
2022/08/04 08:30:24;;;;;;;;;;;;;;;30.23;37.34;96254.75;5042518;28;19965;-71
2022/08/04 08:32:50;;;;;;;;;;;;;;;30.38;37.24;96256.69;5044507;28;19980;-72
2022/08/04 08:35:16;;;;;;;;;;;;;;;30.49;37.95;96255.03;5046631;28;19999;-71
2022/08/04 08:37:55;;;;;;;;;;;;;;;30.61;37.60;96253.34;5040811;28;19952;-72
2022/08/04 08:40:21;;;;;;;;;;;;;;;30.61;36.35;96250.63;5039935;28;20361;-72
2022/08/04 08:43:06;;;;;;;;;;;;;;;30.60;37.27;96249.84;5045872;28;20298;-73
2022/08/04 08:45:50;;;;;;;;;;;;;;;30.65;37.16;96251.50;5034464;28;19965;-72
2022/08/04 08:48:15;;;;;;;;;;;;;;;30.70;36.60;96253.91;5035093;28;19966;-72
2022/08/04 08:50:51;;;;;;;;;;;;;;;30.76;37.41;96260.63;5045133;28;19960;-72
2022/08/04 08:53:35;;;;;;;;;;;;;;;30.95;38.01;96263.41;5044524;28;19972;-72
2022/08/04 08:56:01;;;;;;;;;;;;;;;31.13;37.17;96249.44;5038818;28;19957;-72
2022/08/04 08:58:36;;;;;;;;;;;;;;;31.26;36.22;96253.56;5044626;28;20012;-72
2022/08/04 09:01:02;;;;;;;;;;;;;;;31.31;37.37;96263.31;5050292;28;19971;-72
2022/08/04 09:03:43;;;;;;;;;;;;;;;31.34;35.94;96254.50;5040075;28;20432;-71
2022/08/04 09:06:22;;;;;;;;;;;;;;;31.32;36.06;96248.66;5036546;28;20420;-72
2022/08/04 09:09:03;;;;;;;;;;;;;;;31.21;35.61;96251.16;5038565;28;20445;-72
2022/08/04 09:11:36;;;;;;;;;;;;;;;31.22;35.53;96255.41;5042492;28;19965;-72
2022/08/04 09:14:09;;;;;;;;;;;;;;;31.30;35.55;96251.69;5025696;28;19964;-71
2022/08/04 09:16:48;;;;;;;;;;;;;;;31.36;35.84;96257.63;5041591;28;19962;-71
2022/08/04 09:19:32;;;;;;;;;;;;;;;31.40;35.64;96250.34;5048641;28;19958;-71
2022/08/04 09:21:58;;;;;;;;;;;;;;;31.43;34.79;96254.25;5046518;28;20425;-71
2022/08/04 09:24:42;;;;;;;;;;;;;;;31.49;34.46;96247.44;5038447;28;20010;-71
2022/08/04 09:27:17;;;;;;;;;;;;;;;31.53;35.80;96253.72;5049920;28;19963;-71
2022/08/04 09:30:09;;;;;;;;;;;;;;;31.64;36.13;96254.69;5034967;28;20344;-70
2022/08/04 09:32:43;;;;;;;;;;;;;;;31.76;34.16;96242.91;5049510;28;20353;-71
2022/08/04 09:35:24;;;;;;;;;;;;;;;31.84;34.34;96244.59;5037021;28;19955;-71
2022/08/04 09:37:59;;;;;;;;;;;;;;;31.83;35.19;96250.38;5039135;28;19965;-71
2022/08/04 09:40:28;;;;;;;;;;;;;;;31.94;35.33;96245.91;5047893;28;19983;-72
2022/08/04 09:43:12;;;;;;;;;;;;;;;31.99;32.80;96234.78;5040533;28;19969;-71
2022/08/04 09:45:44;;;;;;;;;;;;;;;32.09;33.84;96242.31;5040902;28;20425;-72
2022/08/04 09:48:23;;;;;;;;;;;;;;;32.15;33.01;96240.88;5047181;28;20423;-73
2022/08/04 09:50:56;;;;;;;;;;;;;;;32.22;30.98;96236.69;5045450;28;19977;-71
2022/08/04 09:53:26;;;;;;;;;;;;;;;32.32;31.41;96241.50;5043965;28;19978;-71
2022/08/04 09:56:12;;;;;;;;;;;;;;;32.47;32.74;96239.78;5037579;28;19961;-71
2022/08/04 09:58:43;;;;;;;;;;;;;;;32.64;31.05;96233.09;5049158;28;19977;-71
2022/08/04 10:01:12;;;;;;;;;;;;;;;32.72;31.54;96238.25;5048085;28;19962;-71
2022/08/04 10:03:40;;;;;;;;;;;;;;;32.80;28.45;96232.88;5045618;28;19981;-71
2022/08/04 10:06:18;;;;;;;;;;;;;;;32.90;29.52;96233.03;5047474;28;19967;-71
2022/08/04 10:08:44;;;;;;;;;;;;;;;33.05;30.13;96228.53;5047290;28;19964;-71
2022/08/04 10:11:20;;;;;;;;;;;;;;;33.11;28.59;96231.75;5050241;28;19991;-71
2022/08/04 10:13:56;;;;;;;;;;;;;;;33.26;27.81;96232.69;5046736;28;20360;-77
2022/08/04 10:16:40;;;;;;;;;;;;;;;33.42;27.26;96227.84;5035004;28;20357;-71
2022/08/04 10:19:25;;;;;;;;;;;;;;;33.47;27.13;96216.59;5027910;28;19965;-71
2022/08/04 10:22:01;;;;;;;;;;;;;;;33.59;28.23;96222.94;5049651;28;19968;-71
2022/08/04 10:24:35;;;;;;;;;;;;;;;33.64;27.75;96212.56;5043586;28;20415;-71
2022/08/04 10:27:06;;;;;;;;;;;;;;;33.75;27.85;96218.09;5046520;28;19959;-74
2022/08/04 10:29:41;;;;;;;;;;;;;;;33.76;25.93;96206.03;5045483;28;20443;-74
2022/08/04 10:32:20;;;;;;;;;;;;;;;33.89;27.28;96206.53;5035413;28;19985;-71
2022/08/04 10:34:55;;;;;;;;;;;;;;;34.02;26.82;96207.03;5047709;28;19964;-72
2022/08/04 10:37:23;;;;;;;;;;;;;;;34.11;26.02;96208.28;5052247;28;19976;-71
2022/08/04 10:42:46;;;;;;;;;;;;;;;34.39;26.85;96196.03;5035570;28;19977;-72
2022/08/04 10:45:16;;;;;;;;;;;;;;;34.54;25.61;96186.81;5032915;28;19956;-73
2022/08/04 10:47:48;;;;;;;;;;;;;;;34.59;25.18;96180.22;5036264;28;19964;-74
2022/08/04 10:50:15;;;;;;;;;;;;;;;34.48;25.61;96185.63;5039026;28;19962;-72
2022/08/04 10:52:47;;;;;;;;;;;;;;;34.54;24.92;96189.53;5036919;28;19972;-72
2022/08/04 10:55:20;;;;;;;;;;;;;;;34.54;25.78;96177.84;5045921;28;20337;-72
2022/08/04 10:57:58;;;;;;;;;;;;;;;34.69;24.93;96181.44;5052120;28;19976;-72
2022/08/04 11:00:25;;;;;;;;;;;;;;;34.87;24.59;96190.47;5034671;28;19957;-73
2022/08/04 11:03:07;;;;;;;;;;;;;;;35.05;24.90;96184.31;5042898;28;19949;-72
2022/08/04 11:05:50;;;;;;;;;;;;;;;35.17;24.73;96187.50;5038210;28;19953;-72
2022/08/04 11:08:35;;;;;;;;;;;;;;;35.39;25.75;96186.78;5047460;28;19960;-76
2022/08/04 11:11:08;;;;;;;;;;;;;;;35.59;24.98;96187.97;5047701;28;19962;-72
2022/08/04 11:13:39;;;;;;;;;;;;;;;35.73;25.46;96182.53;5044516;28;19977;-73
2022/08/04 11:16:08;;;;;;;;;;;;;;;35.84;25.06;96179.03;5028580;28;19968;-72
2022/08/04 11:18:44;;;;;;;;;;;;;;;35.97;24.69;96175.53;5043663;28;20415;-72
2022/08/04 11:21:14;;;;;;;;;;;;;;;36.14;25.04;96175.94;5045226;28;19957;-72
2022/08/04 11:23:45;;;;;;;;;;;;;;;36.34;24.76;96182.53;5045573;28;20334;-72
2022/08/04 11:26:18;;;;;;;;;;;;;;;36.45;23.47;96184.47;5049896;28;19952;-73
2022/08/04 11:28:48;;;;;;;;;;;;;;;36.56;24.26;96177.00;5040806;28;19979;-72
2022/08/04 11:31:24;;;;;;;;;;;;;;;36.63;23.61;96177.03;5044232;28;19967;-72
2022/08/04 11:34:08;;;;;;;;;;;;;;;36.72;23.98;96179.34;5042273;28;19973;-73
2022/08/04 11:36:45;;;;;;;;;;;;;;;36.73;22.60;96178.19;5025528;28;19957;-73
2022/08/04 11:39:23;;;;;;;;;;;;;;;36.74;22.94;96174.25;5044635;28;19964;-72
2022/08/04 11:42:07;;;;;;;;;;;;;;;36.69;23.38;96169.97;5049010;28;20317;-72
2022/08/04 11:44:41;;;;;;;;;;;;;;;36.73;23.58;96172.72;5045751;28;19967;-72
2022/08/04 11:47:10;;;;;;;;;;;;;;;36.78;22.55;96164.88;5039896;28;19957;-72
2022/08/04 11:49:43;;;;;;;;;;;;;;;36.80;22.68;96164.47;5050020;28;20423;-73
2022/08/04 11:52:11;;;;;;;;;;;;;;;36.82;21.40;96167.59;5045793;28;20349;-72
2022/08/04 11:54:37;;;;;;;;;;;;;;;36.87;21.54;96167.16;5042582;28;19951;-73
2022/08/04 11:57:04;;;;;;;;;;;;;;;36.90;22.75;96168.34;5043341;28;19981;-73
2022/08/04 11:59:32;;;;;;;;;;;;;;;37.00;23.46;96172.19;5040564;28;19967;-73
2022/08/04 12:01:58;;;;;;;;;;;;;;;37.30;23.37;96174.41;5046823;28;19966;-73
2022/08/04 12:04:25;;;;;;;;;;;;;;;37.46;22.60;96166.47;5049250;28;20012;-74
2022/08/04 12:06:55;;;;;;;;;;;;;;;37.70;22.28;96162.03;5041222;28;19954;-73
2022/08/04 12:09:40;;;;;;;;;;;;;;;37.91;22.76;96165.78;5058581;28;19962;-72
2022/08/04 12:12:08;;;;;;;;;;;;;;;37.99;22.11;96159.06;5037968;28;19957;-72
2022/08/04 12:14:40;;;;;;;;;;;;;;;37.76;22.84;96152.22;5038617;28;19972;-72
2022/08/04 12:17:09;;;;;;;;;;;;;;;37.42;21.58;96152.03;5043368;28;19956;-73
2022/08/04 12:19:44;;;;;;;;;;;;;;;36.92;22.50;96166.00;5046639;28;20354;-73
2022/08/04 12:22:14;;;;;;;;;;;;;;;36.39;23.18;96159.50;5046914;28;20425;-73
2022/08/04 12:24:43;;;;;;;;;;;;;;;35.98;24.50;96168.91;5040746;28;19960;-73
2022/08/04 12:27:29;;;;;;;;;;;;;;;35.66;23.99;96176.31;5043136;28;19974;-72
2022/08/04 12:29:55;;;;;;;;;;;;;;;35.37;24.40;96171.56;5048938;28;19962;-73
2022/08/04 12:32:26;;;;;;;;;;;;;;;35.20;25.08;96169.59;5048341;28;19966;-72
2022/08/04 12:35:13;;;;;;;;;;;;;;;35.27;24.92;96174.28;5040144;28;20050;-72
2022/08/04 12:37:48;;;;;;;;;;;;;;;35.35;25.45;96162.22;5007812;28;19963;-73
2022/08/04 12:40:24;;;;;;;;;;;;;;;35.43;25.19;96160.31;5044270;28;19959;-72
2022/08/04 12:43:01;;;;;;;;;;;;;;;35.67;25.19;96165.00;5049078;28;19958;-76
2022/08/04 12:45:28;;;;;;;;;;;;;;;35.97;24.82;96153.72;5041389;28;19954;-72
2022/08/04 12:47:56;;;;;;;;;;;;;;;36.12;24.16;96146.28;5037515;28;19965;-72
2022/08/04 12:50:22;;;;;;;;;;;;;;;36.28;23.71;96145.09;5047749;28;19958;-73
2022/08/04 12:52:51;;;;;;;;;;;;;;;36.45;24.37;96149.72;5042976;28;19985;-72
2022/08/04 12:55:20;;;;;;;;;;;;;;;36.61;23.79;96148.53;5039228;28;19958;-73
2022/08/04 12:57:46;;;;;;;;;;;;;;;36.75;24.42;96145.78;5048677;28;19960;-73
2022/08/04 13:00:22;;;;;;;;;;;;;;;36.81;23.83;96152.34;5045652;28;20465;-73
2022/08/04 13:02:48;;;;;;;;;;;;;;;36.83;23.95;96150.00;5037460;28;19968;-73
2022/08/04 13:05:14;;;;;;;;;;;;;;;36.90;22.95;96147.25;5044017;28;19957;-73
2022/08/04 13:07:42;;;;;;;;;;;;;;;36.75;21.90;96148.50;5032577;28;20314;-72
2022/08/04 13:10:12;;;;;;;;;;;;;;;36.67;22.62;96139.53;5063069;28;20485;-73
2022/08/04 13:12:39;;;;;;;;;;;;;;;36.67;23.33;96145.00;5045162;28;19982;-72
2022/08/04 13:15:09;;;;;;;;;;;;;;;36.73;21.70;96139.91;5044601;28;19966;-72